createdAt,value
2018-09-15T00:07:20.868Z,1001.77
2018-09-15T00:17:20.892Z,1001.76
2018-09-15T00:27:20.841Z,1001.91
2018-09-15T00:37:20.930Z,1002.15
2018-09-15T00:47:21.719Z,1002.13
2018-09-15T00:57:20.940Z,1002.18
2018-09-15T01:07:20.907Z,1002.09
2018-09-15T01:17:20.804Z,1001.99
2018-09-15T01:27:20.881Z,1002.05
2018-09-15T01:37:20.846Z,1002.09
2018-09-15T01:47:20.877Z,1002.05
2018-09-15T01:57:21.021Z,1001.96
2018-09-15T02:07:20.883Z,1001.88
2018-09-15T02:17:20.862Z,1001.94
2018-09-15T02:27:20.795Z,1001.98
2018-09-15T02:37:20.905Z,1002.03
2018-09-15T02:47:20.813Z,1002.01
2018-09-15T02:57:20.852Z,1001.91
2018-09-15T03:07:21.084Z,1001.92
2018-09-15T03:17:20.907Z,1002.08
2018-09-15T03:27:20.937Z,1002.13
2018-09-15T03:37:20.836Z,1002.20
2018-09-15T03:47:20.789Z,1002.20
2018-09-15T03:57:20.932Z,1002.15
2018-09-15T04:07:20.821Z,1002.42
2018-09-15T04:17:20.827Z,1002.46
2018-09-15T04:27:20.800Z,1002.48
2018-09-15T04:37:20.735Z,1002.54
2018-09-15T04:47:20.793Z,1002.43
2018-09-15T04:57:20.861Z,1002.50
2018-09-15T05:07:20.814Z,1002.52
2018-09-15T05:17:20.902Z,1002.62
2018-09-15T05:27:20.902Z,1002.76
2018-09-15T05:37:20.896Z,1002.86
2018-09-15T05:47:20.858Z,1003.01
2018-09-15T05:57:20.901Z,1003.06
2018-09-15T06:07:20.822Z,1003.22
2018-09-15T06:17:20.886Z,1003.24
2018-09-15T06:27:20.948Z,1003.26
2018-09-15T06:37:21.921Z,1003.45
2018-09-15T06:47:20.851Z,1003.51
2018-09-15T06:57:20.814Z,1003.61
2018-09-15T07:07:20.821Z,1003.69
2018-09-15T07:17:20.848Z,1003.91
2018-09-15T07:27:20.909Z,1004.11
2018-09-15T07:37:20.896Z,1004.19
2018-09-15T07:47:20.999Z,1004.22
2018-09-15T07:57:20.849Z,1004.22
2018-09-15T08:07:20.879Z,1004.26
2018-09-15T08:17:20.813Z,1004.26
2018-09-15T08:27:20.802Z,1004.28
2018-09-15T08:37:20.796Z,1004.36
2018-09-15T08:47:20.788Z,1004.55
2018-09-15T08:57:20.805Z,1004.59
2018-09-15T09:07:20.864Z,1004.59
2018-09-15T09:17:20.925Z,1004.61
2018-09-15T09:27:20.715Z,1004.58
2018-09-15T09:37:20.821Z,1004.61
2018-09-15T09:47:20.880Z,1004.75
2018-09-15T09:57:20.897Z,1004.88
2018-09-15T10:07:20.818Z,1004.82
2018-09-15T10:17:20.869Z,1004.78
2018-09-15T10:27:21.682Z,1004.78
2018-09-15T10:37:20.925Z,1004.72
2018-09-15T10:47:20.886Z,1004.73
2018-09-15T10:57:20.973Z,1004.76
2018-09-15T11:07:20.858Z,1004.68
2018-09-15T11:17:20.928Z,1004.69
2018-09-15T11:27:20.832Z,1004.60
2018-09-15T11:37:20.893Z,1004.61
2018-09-15T11:47:21.040Z,1004.50
2018-09-15T11:57:20.797Z,1004.50
2018-09-15T12:07:20.844Z,1004.51
2018-09-15T12:17:20.939Z,1004.51
2018-09-15T12:27:20.832Z,1004.46
2018-09-15T12:37:20.881Z,1004.48
2018-09-15T12:47:20.886Z,1004.56
2018-09-15T12:57:20.875Z,1004.50
2018-09-15T13:07:21.042Z,1004.36
2018-09-15T13:17:21.022Z,1004.38
2018-09-15T13:27:20.947Z,1004.25
2018-09-15T13:37:20.972Z,1004.34
2018-09-15T13:47:20.917Z,1004.39
2018-09-15T13:57:20.895Z,1004.21
2018-09-15T14:07:20.852Z,1004.28
2018-09-15T14:17:20.839Z,1004.34
2018-09-15T14:27:21.150Z,1004.52
2018-09-15T14:37:21.013Z,1004.46
2018-09-15T14:47:24.750Z,1004.37
2018-09-15T14:57:20.915Z,1004.38
2018-09-15T15:07:20.936Z,1004.32
2018-09-15T15:17:20.939Z,1004.39
2018-09-15T15:27:21.007Z,1004.37
2018-09-15T15:37:20.988Z,1004.28
2018-09-15T15:47:20.960Z,1004.29
2018-09-15T15:57:20.916Z,1004.16
2018-09-15T16:07:21.076Z,1004.15
2018-09-15T16:17:21.242Z,1004.22
2018-09-15T16:27:21.313Z,1004.15
2018-09-15T16:37:21.034Z,1004.06
2018-09-15T16:47:21.798Z,1004.01
2018-09-15T16:57:20.949Z,1004.01
2018-09-15T17:07:20.972Z,1004.18
2018-09-15T17:17:20.977Z,1004.16
2018-09-15T17:27:21.111Z,1004.15
2018-09-15T17:37:20.955Z,1004.22
2018-09-15T17:47:21.044Z,1004.25
2018-09-15T17:57:20.980Z,1004.37
2018-09-15T18:07:21.008Z,1004.46
2018-09-15T18:17:21.963Z,1004.57
2018-09-15T18:27:20.991Z,1004.47
2018-09-15T18:37:21.189Z,1004.53
2018-09-15T18:47:21.063Z,1004.54
2018-09-15T18:57:22.524Z,1004.71
2018-09-15T19:07:21.021Z,1004.74
2018-09-15T19:17:21.001Z,1004.78
2018-09-15T19:27:20.979Z,1004.84
2018-09-15T19:37:21.031Z,1004.94
2018-09-15T19:47:21.036Z,1005.00
2018-09-15T19:57:20.936Z,1005.09
2018-09-15T20:07:20.975Z,1005.07
2018-09-15T20:17:21.004Z,1005.15
2018-09-15T20:27:20.982Z,1005.11
2018-09-15T20:37:21.062Z,1005.08
2018-09-15T20:47:20.923Z,1005.02
2018-09-15T20:57:21.190Z,1005.03
2018-09-15T21:07:21.020Z,1005.12
2018-09-15T21:17:21.020Z,1005.07
2018-09-15T21:27:21.028Z,1005.05
2018-09-15T21:37:21.032Z,1005.13
2018-09-15T21:47:21.029Z,1005.14
2018-09-15T21:57:20.957Z,1005.05
2018-09-15T22:07:20.925Z,1005.06
2018-09-15T22:17:20.963Z,1005.16
2018-09-15T22:27:21.041Z,1005.21
2018-09-15T22:37:21.072Z,1005.15
2018-09-15T22:47:21.655Z,1005.15
2018-09-15T22:57:21.003Z,1005.12
2018-09-15T23:07:20.954Z,1004.99
2018-09-15T23:17:20.969Z,1004.89
2018-09-15T23:27:20.988Z,1004.83
2018-09-15T23:37:21.059Z,1004.78
2018-09-15T23:47:20.925Z,1004.74
2018-09-15T23:57:21.064Z,1004.69
